Aldrich, Minnesota
Current Conditions -  °F | °C
As of 12:13 AM on Monday 22 Dec 2014 (Local Time) from KSAZ Reporting Station
Haze Haze  
Wind Chill: 27°   Ceiling: 300
Heat Index: 34°   Visibility: 4mi
Dew Point: 34°   Wind: 8mph
Humidity: 100%   Direction: 140°SE
Pressure: 29.62"   Gusts: NA
Location:  46.38°N, 94.94°W
Report Text: KSAZ 220613Z AUTO 14007KT 4SM BR OVC003 01/01 A2962 RMK AO2
Loading
Personal Weather Stations






























Interactive Weather Map New forecast layout! Learn more

10-Day Weather Forecast

Advertisements
Track Severe Weather on mobile